メインページ
METAR-TAF:

METAR-TAF

空港 :

中標津空港

中標津, 日本

緯度: 43-34N, 経度: 144-58E, 海抜: 66m

現時点の気象観測

当レポートは23分前の07:00(UTC)に作成
南西の風 8kt
気温 26°C
湿度 61%
気圧 1009 hPa
視程10km以上
高度2500ftの雲はほとんどない
高度4500ftの雲は散在している
千切れ雲あり

METAR: RJCN 200700Z 22008KT 9999 FEW025 SCT045 BKN/// 26/18 Q1009

時間: 16:23 (07:23 UTC)


TAF: 見つかりません

4,000以上の空港の気象観測と天気予報(METAR報とTAF報)

利用可能な観測所は地図上に黄色い丸と赤い丸で示す。

丸の上にカーソルを重ねると観測所名を参照できる。

次にクリックすると気象観測と天気予報を参照できる。

マップの切り替え:黒色「×」印の緑ボタンをクリックして拡大、「-」印の緑ボタンをクリックして縮小、緑色の三角印をクリックして隣りの地図に切り替え


METAR-TAF: